Darstellungsparameter: Aktuell verwendete Einstellungen:
Skalierung der Graphiken ... ?
xyx+y,   Skalierungsfaktor:      Skalierung: Modus: x, Faktor: 1
Darstellungszeitraum ... ?
Vom - - bis: - -   Zeitraum: 30.04.2015 - 30.04.2015
Min/Max/Avg-Anzeige ... ?
Zeige MMA aktuell
Zeige MMA Monat
Zeige MMA alles
Zeige --A aktuell
Zeige --A Monat
Zeige --A alles
Keine MMA-Anzeige
MMA:
Average (ber die Originaldaten)
MMA-Basis: 30.04.2015 - 30.04.2015
Quicknavigation für Darstellung... ?
Tage:      1T, 2T, 3T, 5T -1T -2T -3T -5T +1T +2T +3T +5T
Wochen: 1W, 2W, 3W -1W -2W -3W +1W +2W +3W
Monate: 1M, 3M, 6M -1M -3M -6M +1M +3M +6M
Jahre:    1J, 3J, 5J, 10J -1J -3J -5J -10J +1J +3J +5J +10J
Nutze für die Darstellung ... ?
Originaldaten oder Mittelwerte auf ...
Stundenbasis Tagesbasis Wochenbasis
Monatsbasis Jahresbasis      Datenbasis: Original-Daten
Darstellen als:
Statistik (Auto) Statistik J:M      Darstellung:
Zur Graphik,    zurück zur Übersicht aller Sensoren.
 
Tabellarische Datenbersicht: ?
 
Sensor: Nr:Datum:Temp:Abs-Feuchte:Windchill:Wind:
Aussen-T/F 1 30-04-2015 00:00:00 8.9 C 6.92 g/m*3 8.9 C 0 km/h
2 30-04-2015 00:05:00 8.9 C 6.83 g/m*3 8.9 C 1.6 km/h
3 30-04-2015 00:10:00 8.9 C 6.83 g/m*3 8.9 C 1.6 km/h
4 30-04-2015 00:15:00 8.9 C 6.83 g/m*3 8.9 C 1.6 km/h
5 30-04-2015 00:20:00 8.9 C 6.92 g/m*3 8.9 C 0 km/h
6 30-04-2015 00:25:00 8.9 C 6.83 g/m*3 8.9 C 1.6 km/h
7 30-04-2015 00:30:00 8.9 C 6.75 g/m*3 8.9 C 0 km/h
8 30-04-2015 00:35:00 8.9 C 6.75 g/m*3 8.9 C 0 km/h
9 30-04-2015 00:40:00 9 C 6.79 g/m*3 9 C 1.6 km/h
10 30-04-2015 00:45:00 9 C 6.79 g/m*3 9 C 0 km/h
11 30-04-2015 00:50:00 8.9 C 6.83 g/m*3 8.9 C 1.6 km/h
12 30-04-2015 00:55:00 8.9 C 6.83 g/m*3 8.9 C 1.6 km/h
13 30-04-2015 01:00:00 8.9 C 6.83 g/m*3 8.9 C 1.6 km/h
14 30-04-2015 01:05:00 8.9 C 6.92 g/m*3 8.9 C 1.6 km/h
15 30-04-2015 01:10:00 8.8 C 6.88 g/m*3 8.8 C 1.6 km/h
16 30-04-2015 01:15:00 8.8 C 6.79 g/m*3 8.8 C 3.2 km/h
17 30-04-2015 01:20:00 8.8 C 6.88 g/m*3 8.8 C 1.6 km/h
18 30-04-2015 01:25:00 8.8 C 6.79 g/m*3 8.8 C 1.6 km/h
19 30-04-2015 01:30:00 8.8 C 6.88 g/m*3 8.8 C 1.6 km/h
20 30-04-2015 01:35:00 8.8 C 6.79 g/m*3 8.8 C 0 km/h
21 30-04-2015 01:40:00 8.7 C 6.92 g/m*3 8.7 C 0 km/h
22 30-04-2015 01:45:00 8.6 C 6.96 g/m*3 8.6 C 0 km/h
23 30-04-2015 01:50:00 8.6 C 6.79 g/m*3 8.6 C 0 km/h
24 30-04-2015 01:55:00 8.5 C 6.92 g/m*3 8.5 C 1.6 km/h
25 30-04-2015 02:00:00 8.5 C 6.74 g/m*3 8.5 C 1.6 km/h
Sensor: Nr:Datum:Temp:Abs-Feuchte:Windchill:Wind:
Aussen-T/F 26 30-04-2015 02:05:00 8.4 C 6.87 g/m*3 8.4 C 0 km/h
27 30-04-2015 02:10:00 8.4 C 6.79 g/m*3 8.4 C 1.6 km/h
28 30-04-2015 02:15:00 8.4 C 6.79 g/m*3 8.4 C 0 km/h
29 30-04-2015 02:20:00 8.4 C 6.79 g/m*3 8.4 C 1.6 km/h
30 30-04-2015 02:25:00 8.4 C 6.79 g/m*3 8.4 C 1.6 km/h
31 30-04-2015 02:30:00 8.3 C 6.74 g/m*3 8.3 C 0 km/h
32 30-04-2015 02:35:00 8.3 C 6.74 g/m*3 8.3 C 1.6 km/h
33 30-04-2015 02:40:00 8.3 C 6.74 g/m*3 8.3 C 1.6 km/h
34 30-04-2015 02:45:00 8.3 C 6.74 g/m*3 8.3 C 0 km/h
35 30-04-2015 02:50:00 8.3 C 6.83 g/m*3 8.3 C 3.2 km/h
36 30-04-2015 02:55:00 8.2 C 6.78 g/m*3 8.2 C 0 km/h
37 30-04-2015 03:00:00 8.1 C 6.74 g/m*3 8.1 C 1.6 km/h
38 30-04-2015 03:05:00 8.1 C 6.82 g/m*3 8.1 C 1.6 km/h
39 30-04-2015 03:10:00 7.9 C 6.74 g/m*3 7.9 C 0 km/h
40 30-04-2015 03:15:00 7.9 C 6.74 g/m*3 7.9 C 1.6 km/h
41 30-04-2015 03:20:00 7.9 C 6.74 g/m*3 7.9 C 1.6 km/h
42 30-04-2015 03:25:00 7.9 C 6.74 g/m*3 7.9 C 1.6 km/h
43 30-04-2015 03:30:00 7.9 C 6.82 g/m*3 7.9 C 0 km/h
44 30-04-2015 03:35:00 7.8 C 6.77 g/m*3 7.8 C 0 km/h
45 30-04-2015 03:40:00 7.8 C 6.69 g/m*3 7.8 C 0 km/h
46 30-04-2015 03:45:00 7.9 C 6.74 g/m*3 7.9 C 0 km/h
47 30-04-2015 03:50:00 7.9 C 6.82 g/m*3 7.9 C 0 km/h
48 30-04-2015 03:55:00 7.8 C 6.77 g/m*3 7.8 C 0 km/h
49 30-04-2015 04:00:00 7.8 C 6.86 g/m*3 7.8 C 0 km/h
50 30-04-2015 04:05:00 7.7 C 6.73 g/m*3 7.7 C 1.6 km/h
Sensor: Nr:Datum:Temp:Abs-Feuchte:Windchill:Wind:
Aussen-T/F 51 30-04-2015 04:10:00 7.7 C 6.73 g/m*3 7.7 C 0 km/h
52 30-04-2015 04:15:00 7.6 C 6.69 g/m*3 7.6 C 0 km/h
53 30-04-2015 04:20:00 7.4 C 6.68 g/m*3 7.4 C 1.6 km/h
54 30-04-2015 04:25:00 7.3 C 6.72 g/m*3 7.3 C 1.6 km/h
55 30-04-2015 04:30:00 7.2 C 6.67 g/m*3 7.2 C 0 km/h
56 30-04-2015 04:35:00 7.1 C 6.71 g/m*3 7.1 C 1.6 km/h
57 30-04-2015 04:40:00 7.1 C 6.71 g/m*3 7.1 C 1.6 km/h
58 30-04-2015 04:45:00 7.2 C 6.67 g/m*3 7.2 C 0 km/h
59 30-04-2015 04:50:00 7.3 C 6.72 g/m*3 7.3 C 1.6 km/h
60 30-04-2015 04:55:00 7.3 C 6.72 g/m*3 7.3 C 1.6 km/h
61 30-04-2015 05:00:00 7.4 C 6.76 g/m*3 7.4 C 1.6 km/h
62 30-04-2015 05:05:00 7.4 C 6.68 g/m*3 7.4 C 1.6 km/h
63 30-04-2015 05:10:00 7.4 C 6.68 g/m*3 7.4 C 1.6 km/h
64 30-04-2015 05:15:00 7.4 C 6.68 g/m*3 7.4 C 1.6 km/h
65 30-04-2015 05:20:00 7.4 C 6.68 g/m*3 7.4 C 1.6 km/h
66 30-04-2015 05:25:00 7.3 C 6.72 g/m*3 7.3 C 0 km/h
67 30-04-2015 05:30:00 7.2 C 6.67 g/m*3 7.2 C 0 km/h
68 30-04-2015 05:35:00 7.2 C 6.67 g/m*3 7.2 C 1.6 km/h
69 30-04-2015 05:40:00 7.1 C 6.63 g/m*3 7.1 C 3.2 km/h
70 30-04-2015 05:45:00 7.2 C 6.67 g/m*3 7.2 C 4.8 km/h
71 30-04-2015 05:50:00 7.2 C 6.67 g/m*3 7.2 C 1.6 km/h
72 30-04-2015 05:55:00 7.2 C 6.67 g/m*3 7.2 C 0 km/h
73 30-04-2015 06:00:00 7.3 C 6.79 g/m*3 7.3 C 0 km/h
74 30-04-2015 06:05:00 7.3 C 6.79 g/m*3 7.3 C 0 km/h
75 30-04-2015 06:10:00 7.3 C 6.79 g/m*3 7.3 C 0 km/h
Sensor: Nr:Datum:Temp:Abs-Feuchte:Windchill:Wind:
Aussen-T/F 76 30-04-2015 06:15:00 7.2 C 6.83 g/m*3 7.2 C 1.6 km/h
77 30-04-2015 06:20:00 7.1 C 6.79 g/m*3 7.1 C 1.6 km/h
78 30-04-2015 06:25:00 7.1 C 6.79 g/m*3 7.1 C 0 km/h
79 30-04-2015 06:30:00 7.1 C 6.86 g/m*3 7.1 C 0 km/h
80 30-04-2015 06:35:00 7 C 6.82 g/m*3 7 C 0 km/h
81 30-04-2015 06:40:00 6.9 C 6.77 g/m*3 6.9 C 0 km/h
82 30-04-2015 06:45:00 6.9 C 6.77 g/m*3 6.9 C 0 km/h
83 30-04-2015 06:50:00 6.9 C 6.77 g/m*3 6.9 C 0 km/h
84 30-04-2015 06:55:00 6.8 C 6.73 g/m*3 6.8 C 0 km/h
85 30-04-2015 07:00:00 6.7 C 6.76 g/m*3 6.7 C 0 km/h
86 30-04-2015 07:05:00 6.7 C 6.76 g/m*3 6.7 C 1.6 km/h
87 30-04-2015 07:10:00 6.6 C 6.72 g/m*3 6.6 C 1.6 km/h
88 30-04-2015 07:15:00 6.6 C 6.72 g/m*3 6.6 C 1.6 km/h
89 30-04-2015 07:20:00 6.5 C 6.67 g/m*3 6.5 C 0 km/h
90 30-04-2015 07:25:00 6.6 C 6.79 g/m*3 6.6 C 0 km/h
91 30-04-2015 07:30:00 6.8 C 6.88 g/m*3 6.8 C 0 km/h
92 30-04-2015 07:35:00 7 C 6.9 g/m*3 7 C 0 km/h
93 30-04-2015 07:40:00 7.3 C 7.03 g/m*3 7.3 C 4.8 km/h
94 30-04-2015 07:45:00 7.5 C 7.04 g/m*3 7.5 C 3.2 km/h
95 30-04-2015 07:50:00 7.8 C 7.1 g/m*3 7.8 C 0 km/h
96 30-04-2015 07:55:00 8.1 C 7.16 g/m*3 8.1 C 4.8 km/h
97 30-04-2015 08:00:00 8.3 C 7.08 g/m*3 6.66 C 9.7 km/h
98 30-04-2015 08:05:00 8.6 C 7.13 g/m*3 7.01 C 9.7 km/h
99 30-04-2015 08:10:00 8.8 C 7.05 g/m*3 6.11 C 17.7 km/h
100 30-04-2015 08:15:00 9.1 C 7.19 g/m*3 6.48 C 17.7 km/h
Sensor: Nr:Datum:Temp:Abs-Feuchte:Windchill:Wind:
Aussen-T/F 101 30-04-2015 08:20:00 9.2 C 7.14 g/m*3 7.46 C 11.3 km/h
102 30-04-2015 08:25:00 9.3 C 7.19 g/m*3 7.12 C 14.5 km/h
103 30-04-2015 08:30:00 9.4 C 7.15 g/m*3 7.46 C 12.9 km/h
104 30-04-2015 08:35:00 9.6 C 7.24 g/m*3 8.21 C 9.7 km/h
105 30-04-2015 08:40:00 9.7 C 7.19 g/m*3 8.06 C 11.3 km/h
106 30-04-2015 08:45:00 9.8 C 7.14 g/m*3 7.94 C 12.9 km/h
107 30-04-2015 08:50:00 9.8 C 7.14 g/m*3 7.73 C 14.5 km/h
108 30-04-2015 08:55:00 9.9 C 7.1 g/m*3 8.3 C 11.3 km/h
109 30-04-2015 09:00:00 9.9 C 7.19 g/m*3 8.87 C 8.1 km/h
110 30-04-2015 09:05:00 10 C 7.14 g/m*3 8.42 C 11.3 km/h
111 30-04-2015 09:10:00 9.9 C 7.1 g/m*3 8.56 C 9.7 km/h
112 30-04-2015 09:15:00 9.8 C 7.05 g/m*3 7.36 C 17.7 km/h
113 30-04-2015 09:20:00 9.8 C 7.05 g/m*3 8.18 C 11.3 km/h
114 30-04-2015 09:25:00 9.9 C 7.1 g/m*3 7.16 C 20.9 km/h
115 30-04-2015 09:30:00 10.1 C 7.09 g/m*3 7.91 C 16.1 km/h
116 30-04-2015 09:35:00 10.2 C 7.23 g/m*3 8.66 C 11.3 km/h
117 30-04-2015 09:40:00 10.3 C 7.09 g/m*3 8.34 C 14.5 km/h
118 30-04-2015 09:45:00 10.5 C 7.18 g/m*3 8.23 C 17.7 km/h
119 30-04-2015 09:50:00 10.6 C 7.12 g/m*3 8.92 C 12.9 km/h
120 30-04-2015 09:55:00 10.8 C 7.22 g/m*3 8.96 C 14.5 km/h
121 30-04-2015 10:00:00 10.8 C 7.12 g/m*3 8.96 C 14.5 km/h
122 30-04-2015 10:05:00 10.8 C 7.22 g/m*3 8.78 C 16.1 km/h
123 30-04-2015 10:10:00 11.1 C 7.35 g/m*3 11.1 C 16.1 km/h
124 30-04-2015 10:15:00 11.3 C 7.34 g/m*3 11.3 C 14.5 km/h
125 30-04-2015 10:20:00 11.4 C 7.29 g/m*3 11.4 C 11.3 km/h
Sensor: Nr:Datum:Temp:Abs-Feuchte:Windchill:Wind:
Aussen-T/F 126 30-04-2015 10:25:00 11.4 C 7.29 g/m*3 11.4 C 14.5 km/h
127 30-04-2015 10:30:00 11.6 C 7.38 g/m*3 11.6 C 9.7 km/h
128 30-04-2015 10:35:00 11.6 C 7.38 g/m*3 11.6 C 16.1 km/h
129 30-04-2015 10:40:00 11.7 C 7.32 g/m*3 11.7 C 16.1 km/h
130 30-04-2015 10:45:00 11.8 C 7.47 g/m*3 11.8 C 12.9 km/h
131 30-04-2015 10:50:00 11.9 C 7.41 g/m*3 11.9 C 12.9 km/h
132 30-04-2015 10:55:00 11.9 C 7.52 g/m*3 11.9 C 8.1 km/h
133 30-04-2015 11:00:00 12 C 7.46 g/m*3 12 C 12.9 km/h
134 30-04-2015 11:05:00 12.1 C 7.61 g/m*3 12.1 C 11.3 km/h
135 30-04-2015 11:10:00 12.1 C 7.61 g/m*3 12.1 C 8.1 km/h
136 30-04-2015 11:15:00 12.2 C 7.66 g/m*3 12.2 C 4.8 km/h
137 30-04-2015 11:20:00 12.2 C 7.66 g/m*3 12.2 C 9.7 km/h
138 30-04-2015 11:25:00 12.4 C 7.65 g/m*3 12.4 C 9.7 km/h
139 30-04-2015 11:30:00 12.6 C 7.63 g/m*3 12.6 C 14.5 km/h
140 30-04-2015 11:35:00 12.7 C 7.68 g/m*3 12.7 C 11.3 km/h
141 30-04-2015 11:40:00 12.8 C 7.62 g/m*3 12.8 C 12.9 km/h
142 30-04-2015 11:45:00 12.9 C 7.66 g/m*3 12.9 C 12.9 km/h
143 30-04-2015 11:50:00 13.1 C 7.76 g/m*3 13.1 C 9.7 km/h
144 30-04-2015 11:55:00 13.2 C 7.69 g/m*3 13.2 C 14.5 km/h
145 30-04-2015 12:00:00 13.3 C 7.39 g/m*3 13.3 C 14.5 km/h
146 30-04-2015 12:05:00 13.3 C 7.63 g/m*3 13.3 C 12.9 km/h
147 30-04-2015 12:10:00 13.2 C 7.58 g/m*3 13.2 C 12.9 km/h
148 30-04-2015 12:15:00 13.2 C 7.58 g/m*3 13.2 C 14.5 km/h
149 30-04-2015 12:20:00 13.2 C 7.58 g/m*3 13.2 C 19.3 km/h
150 30-04-2015 12:25:00 13.1 C 7.53 g/m*3 13.1 C 9.7 km/h
Sensor: Nr:Datum:Temp:Abs-Feuchte:Windchill:Wind:
Aussen-T/F 151 30-04-2015 12:30:00 13.1 C 7.53 g/m*3 13.1 C 17.7 km/h
152 30-04-2015 12:35:00 13.2 C 7.58 g/m*3 13.2 C 12.9 km/h
153 30-04-2015 12:40:00 13.3 C 7.63 g/m*3 13.3 C 11.3 km/h
154 30-04-2015 12:45:00 13.9 C 8.03 g/m*3 13.9 C 12.9 km/h
155 30-04-2015 12:50:00 14.3 C 7.99 g/m*3 14.3 C 20.9 km/h
156 30-04-2015 12:55:00 14.4 C 7.91 g/m*3 14.4 C 9.7 km/h
157 30-04-2015 13:00:00 14.6 C 8.01 g/m*3 14.6 C 14.5 km/h
158 30-04-2015 13:05:00 14.5 C 7.84 g/m*3 14.5 C 17.7 km/h
159 30-04-2015 13:10:00 14.4 C 7.91 g/m*3 14.4 C 14.5 km/h
160 30-04-2015 13:15:00 14.5 C 7.96 g/m*3 14.5 C 20.9 km/h
161 30-04-2015 13:20:00 14.4 C 7.79 g/m*3 14.4 C 11.3 km/h
162 30-04-2015 13:25:00 14.2 C 8.06 g/m*3 14.2 C 20.9 km/h
163 30-04-2015 13:30:00 14 C 8.08 g/m*3 14 C 19.3 km/h
164 30-04-2015 13:35:00 13.8 C 8.22 g/m*3 13.8 C 19.3 km/h
165 30-04-2015 13:40:00 13.7 C 8.05 g/m*3 13.7 C 12.9 km/h
166 30-04-2015 13:45:00 13.6 C 8 g/m*3 13.6 C 17.7 km/h
167 30-04-2015 13:50:00 13.8 C 8.58 g/m*3 13.8 C 19.3 km/h
168 30-04-2015 13:55:00 13.8 C 8.34 g/m*3 13.8 C 11.3 km/h
169 30-04-2015 14:00:00 13.7 C 8.53 g/m*3 13.7 C 11.3 km/h
170 30-04-2015 14:05:00 13.7 C 8.53 g/m*3 13.7 C 12.9 km/h
171 30-04-2015 14:10:00 13.7 C 8.41 g/m*3 13.7 C 12.9 km/h
172 30-04-2015 14:15:00 13.6 C 8.47 g/m*3 13.6 C 6.4 km/h
173 30-04-2015 14:20:00 13.3 C 8.55 g/m*3 13.3 C 9.7 km/h
174 30-04-2015 14:25:00 13.1 C 8.79 g/m*3 13.1 C 4.8 km/h
175 30-04-2015 14:30:00 12.9 C 8.68 g/m*3 12.9 C 8.1 km/h
Sensor: Nr:Datum:Temp:Abs-Feuchte:Windchill:Wind:
Aussen-T/F 176 30-04-2015 14:35:00 12.4 C 8.74 g/m*3 12.4 C 14.5 km/h
177 30-04-2015 14:40:00 11.4 C 8.42 g/m*3 11.4 C 12.9 km/h
178 30-04-2015 14:45:00 11.1 C 8.56 g/m*3 11.1 C 9.7 km/h
179 30-04-2015 14:50:00 11.1 C 8.66 g/m*3 11.1 C 9.7 km/h
180 30-04-2015 14:55:00 11.2 C 8.82 g/m*3 11.2 C 4.8 km/h
181 30-04-2015 15:00:00 11.3 C 8.77 g/m*3 11.3 C 6.4 km/h
182 30-04-2015 15:05:00 11.4 C 8.72 g/m*3 11.4 C 14.5 km/h
183 30-04-2015 15:10:00 11.6 C 8.94 g/m*3 11.6 C 12.9 km/h
184 30-04-2015 15:15:00 11.9 C 9 g/m*3 11.9 C 12.9 km/h
185 30-04-2015 15:20:00 12.2 C 8.85 g/m*3 12.2 C 16.1 km/h
186 30-04-2015 15:25:00 12.3 C 9.01 g/m*3 12.3 C 16.1 km/h
187 30-04-2015 15:30:00 12.4 C 8.63 g/m*3 12.4 C 16.1 km/h
188 30-04-2015 15:35:00 12.4 C 8.74 g/m*3 12.4 C 14.5 km/h
189 30-04-2015 15:40:00 12.3 C 8.58 g/m*3 12.3 C 16.1 km/h
190 30-04-2015 15:45:00 12.2 C 8.31 g/m*3 12.2 C 17.7 km/h
191 30-04-2015 15:50:00 12 C 8.21 g/m*3 12 C 19.3 km/h
192 30-04-2015 15:55:00 11.8 C 8.42 g/m*3 11.8 C 12.9 km/h
193 30-04-2015 16:00:00 11.6 C 8.63 g/m*3 11.6 C 4.8 km/h
194 30-04-2015 16:05:00 11.5 C 8.47 g/m*3 11.5 C 6.4 km/h
195 30-04-2015 16:10:00 11.5 C 8.57 g/m*3 11.5 C 11.3 km/h
196 30-04-2015 16:15:00 11.6 C 8.63 g/m*3 11.6 C 17.7 km/h
197 30-04-2015 16:20:00 11.9 C 8.58 g/m*3 11.9 C 17.7 km/h
198 30-04-2015 16:25:00 12.1 C 8.69 g/m*3 12.1 C 8.1 km/h
199 30-04-2015 16:30:00 12.1 C 8.58 g/m*3 12.1 C 11.3 km/h
200 30-04-2015 16:35:00 12.1 C 8.47 g/m*3 12.1 C 19.3 km/h
Sensor: Nr:Datum:Temp:Abs-Feuchte:Windchill:Wind:
Aussen-T/F 201 30-04-2015 16:40:00 12 C 8.31 g/m*3 12 C 16.1 km/h
202 30-04-2015 16:45:00 11.9 C 8.37 g/m*3 11.9 C 12.9 km/h
203 30-04-2015 16:50:00 11.8 C 8.42 g/m*3 11.8 C 14.5 km/h
204 30-04-2015 16:55:00 11.8 C 8.42 g/m*3 11.8 C 14.5 km/h
205 30-04-2015 17:00:00 11.7 C 8.37 g/m*3 11.7 C 16.1 km/h
206 30-04-2015 17:05:00 11.6 C 8.32 g/m*3 11.6 C 8.1 km/h
207 30-04-2015 17:10:00 11.4 C 8.31 g/m*3 11.4 C 16.1 km/h
208 30-04-2015 17:15:00 11.3 C 8.26 g/m*3 11.3 C 6.4 km/h
209 30-04-2015 17:20:00 11.3 C 8.26 g/m*3 11.3 C 19.3 km/h
210 30-04-2015 17:25:00 11.2 C 8.21 g/m*3 11.2 C 14.5 km/h
211 30-04-2015 17:30:00 11.1 C 8.16 g/m*3 11.1 C 9.7 km/h
212 30-04-2015 17:35:00 11.1 C 8.16 g/m*3 11.1 C 14.5 km/h
213 30-04-2015 17:40:00 10.9 C 8.16 g/m*3 9.51 C 11.3 km/h
214 30-04-2015 17:45:00 10.9 C 8.26 g/m*3 9.51 C 11.3 km/h
215 30-04-2015 17:50:00 10.8 C 8.2 g/m*3 9.16 C 12.9 km/h
216 30-04-2015 17:55:00 10.8 C 8.2 g/m*3 9.93 C 8.1 km/h
217 30-04-2015 18:00:00 10.8 C 8.2 g/m*3 9.38 C 11.3 km/h
218 30-04-2015 18:05:00 10.7 C 8.05 g/m*3 8.84 C 14.5 km/h
219 30-04-2015 18:10:00 10.6 C 7.91 g/m*3 8.71 C 14.5 km/h
220 30-04-2015 18:15:00 10.6 C 8 g/m*3 8.53 C 16.1 km/h
221 30-04-2015 18:20:00 10.5 C 7.95 g/m*3 8.59 C 14.5 km/h
222 30-04-2015 18:25:00 10.4 C 7.9 g/m*3 8.67 C 12.9 km/h
223 30-04-2015 18:30:00 10.4 C 8 g/m*3 9.16 C 9.7 km/h
224 30-04-2015 18:35:00 10.3 C 7.95 g/m*3 8.34 C 14.5 km/h
225 30-04-2015 18:40:00 10.3 C 7.95 g/m*3 8.78 C 11.3 km/h
Sensor: Nr:Datum:Temp:Abs-Feuchte:Windchill:Wind:
Aussen-T/F 226 30-04-2015 18:45:00 10.3 C 7.85 g/m*3 9.04 C 9.7 km/h
227 30-04-2015 18:50:00 10.3 C 7.95 g/m*3 8.55 C 12.9 km/h
228 30-04-2015 18:55:00 10.3 C 7.85 g/m*3 8.55 C 12.9 km/h
229 30-04-2015 19:00:00 10.3 C 7.85 g/m*3 9.04 C 9.7 km/h
230 30-04-2015 19:05:00 10.2 C 7.8 g/m*3 8.22 C 14.5 km/h
231 30-04-2015 19:10:00 10.2 C 7.9 g/m*3 8.92 C 9.7 km/h
232 30-04-2015 19:15:00 10.1 C 7.94 g/m*3 8.54 C 11.3 km/h
233 30-04-2015 19:20:00 10.1 C 7.94 g/m*3 9.48 C 6.4 km/h
234 30-04-2015 19:25:00 10 C 7.89 g/m*3 9.37 C 6.4 km/h
235 30-04-2015 19:30:00 10 C 7.89 g/m*3 8.42 C 11.3 km/h
236 30-04-2015 19:35:00 10 C 7.89 g/m*3 10 C 3.2 km/h
237 30-04-2015 19:40:00 10 C 7.89 g/m*3 8.68 C 9.7 km/h
238 30-04-2015 19:45:00 10 C 7.8 g/m*3 8.19 C 12.9 km/h
239 30-04-2015 19:50:00 10 C 7.89 g/m*3 9.37 C 6.4 km/h
240 30-04-2015 19:55:00 9.9 C 7.84 g/m*3 9.25 C 6.4 km/h
241 30-04-2015 20:00:00 9.9 C 7.94 g/m*3 9.25 C 6.4 km/h
242 30-04-2015 20:05:00 9.8 C 7.89 g/m*3 9.8 C 4.8 km/h
243 30-04-2015 20:10:00 9.8 C 7.89 g/m*3 8.75 C 8.1 km/h
244 30-04-2015 20:15:00 9.7 C 7.93 g/m*3 9.7 C 4.8 km/h
245 30-04-2015 20:20:00 9.7 C 7.84 g/m*3 8.63 C 8.1 km/h
246 30-04-2015 20:25:00 9.7 C 7.84 g/m*3 9.7 C 3.2 km/h
247 30-04-2015 20:30:00 9.7 C 7.93 g/m*3 9.7 C 4.8 km/h
248 30-04-2015 20:35:00 9.7 C 8.02 g/m*3 9.7 C 3.2 km/h
249 30-04-2015 20:40:00 9.6 C 7.97 g/m*3 9.6 C 1.6 km/h
250 30-04-2015 20:45:00 9.4 C 7.96 g/m*3 9.4 C 0 km/h
Sensor: Nr:Datum:Temp:Abs-Feuchte:Windchill:Wind:
Aussen-T/F 251 30-04-2015 20:50:00 9.3 C 8 g/m*3 9.3 C 3.2 km/h
252 30-04-2015 20:55:00 9.2 C 7.95 g/m*3 9.2 C 1.6 km/h
253 30-04-2015 21:00:00 9.2 C 7.95 g/m*3 9.2 C 1.6 km/h
254 30-04-2015 21:05:00 9.1 C 7.99 g/m*3 9.1 C 0 km/h
255 30-04-2015 21:10:00 9.1 C 7.99 g/m*3 9.1 C 1.6 km/h
256 30-04-2015 21:15:00 9.1 C 7.9 g/m*3 7.61 C 9.7 km/h
257 30-04-2015 21:20:00 9.1 C 7.9 g/m*3 9.1 C 3.2 km/h
258 30-04-2015 21:25:00 9 C 7.93 g/m*3 9 C 0 km/h
259 30-04-2015 21:30:00 9 C 7.93 g/m*3 9 C 1.6 km/h
260 30-04-2015 21:35:00 9 C 7.93 g/m*3 9 C 0 km/h
261 30-04-2015 21:40:00 8.9 C 7.97 g/m*3 8.9 C 0 km/h
262 30-04-2015 21:45:00 8.9 C 7.97 g/m*3 8.9 C 3.2 km/h
263 30-04-2015 21:50:00 8.9 C 7.97 g/m*3 8.9 C 1.6 km/h
264 30-04-2015 21:55:00 8.9 C 8.06 g/m*3 8.9 C 1.6 km/h
265 30-04-2015 22:00:00 8.8 C 8.01 g/m*3 8.8 C 1.6 km/h
266 30-04-2015 22:05:00 8.8 C 8.01 g/m*3 8.8 C 0 km/h
267 30-04-2015 22:10:00 8.7 C 7.96 g/m*3 8.7 C 3.2 km/h
268 30-04-2015 22:15:00 8.7 C 8.04 g/m*3 8.7 C 1.6 km/h
269 30-04-2015 22:20:00 8.6 C 7.99 g/m*3 8.6 C 1.6 km/h
270 30-04-2015 22:25:00 8.6 C 7.99 g/m*3 8.6 C 3.2 km/h
271 30-04-2015 22:30:00 8.4 C 7.89 g/m*3 8.4 C 3.2 km/h
272 30-04-2015 22:35:00 8.3 C 7.75 g/m*3 8.3 C 3.2 km/h
273 30-04-2015 22:40:00 8.3 C 7.75 g/m*3 8.3 C 3.2 km/h
274 30-04-2015 22:45:00 8.2 C 7.7 g/m*3 8.2 C 3.2 km/h
275 30-04-2015 22:50:00 8.2 C 7.7 g/m*3 8.2 C 1.6 km/h
Sensor: Nr:Datum:Temp:Abs-Feuchte:Windchill:Wind:
Aussen-T/F 276 30-04-2015 22:55:00 8.2 C 7.7 g/m*3 8.2 C 3.2 km/h
277 30-04-2015 23:00:00 8.2 C 7.7 g/m*3 8.2 C 3.2 km/h
278 30-04-2015 23:05:00 8.1 C 7.66 g/m*3 8.1 C 1.6 km/h
279 30-04-2015 23:10:00 8.1 C 7.66 g/m*3 8.1 C 4.8 km/h
280 30-04-2015 23:15:00 8 C 7.61 g/m*3 8 C 0 km/h
281 30-04-2015 23:20:00 7.9 C 7.64 g/m*3 7.9 C 1.6 km/h
282 30-04-2015 23:25:00 7.8 C 7.59 g/m*3 7.8 C 1.6 km/h
283 30-04-2015 23:30:00 7.7 C 7.54 g/m*3 7.7 C 1.6 km/h
284 30-04-2015 23:35:00 7.5 C 7.44 g/m*3 7.5 C 1.6 km/h
285 30-04-2015 23:40:00 7.4 C 7.4 g/m*3 7.4 C 1.6 km/h
286 30-04-2015 23:45:00 7.3 C 7.35 g/m*3 7.3 C 1.6 km/h
287 30-04-2015 23:50:00 7.2 C 7.3 g/m*3 7.2 C 3.2 km/h
288 30-04-2015 23:55:00 7 C 7.21 g/m*3 7 C 0 km/h

Legende:
   Min
   Max


Maximal/Minimal-Werte vom 30.04.2015 - 30.04.2015

Sensor Min Max Avg
Temp
(Aussen-T/F)
6.5 °C
30-04-2015  07:20:00
14.6 °C
30-04-2015  13:00:00
9.86 °C
Abs-Feuchte
(Aussen-T/F)
6.63 g/m*3
30-04-2015  05:40:00
9.01 g/m*3
30-04-2015  15:25:00
7.49 g/m*3
Windchill
(Aussen-T/F)
6.11 C
30-04-2015  08:10:00
14.6 C
30-04-2015  13:00:00
9.5 C

Die Daten stammen von einer Davis Vantage Pro 2 Wetter-Station und werden unter Linux mit der Software wview2wettercgi und aufbereitet. Alle Angaben erfolgen ohne Gewähr für ihre Vollständigkeit oder Richtigkeit.
Kontakt: Rainer Krienke krienke@uni-koblenz.de . Meine Webseiten an der Uni Koblenz oder privat.
Version: $Revision: 0.78 $